Time;durP1;ratioP1;P1;durP2;ratioP2;P2;SDS_P1;SDS_P2;PMS_P1;PMS_P2;Temp;Humidity;BMP_temperature;BMP_pressure;BME280_temperature;BME280_humidity;BME280_pressure;Samples;Min_cycle;Max_cycle;Signal;HPM_P1;HPM_P2
2022/01/22 00:01:00;;;;;;;15.95;4.35;;;;;;;-1.14;74.20;100341.89;1985445;88;21068;-76
2022/01/22 00:04:01;;;;;;;9.10;4.25;;;;;;;-1.13;74.53;100344.86;1983031;88;21635;-76
2022/01/22 00:07:06;;;;;;;9.85;4.28;;;;;;;-1.16;74.99;100335.91;1984979;87;21071;-76
2022/01/22 00:10:14;;;;;;;12.43;4.17;;;;;;;-1.17;75.43;100334.25;1985165;88;21071;-75
2022/01/22 00:16:20;;;;;;;9.80;3.92;;;;;;;-1.24;75.88;100335.07;1981843;88;21420;-75
2022/01/22 00:19:23;;;;;;;11.88;4.03;;;;;;;-1.27;76.35;100335.68;1977999;88;21044;-77
2022/01/22 00:22:28;;;;;;;10.28;3.70;;;;;;;-1.32;76.99;100335.09;1984953;88;21100;-75
2022/01/22 00:25:27;;;;;;;10.05;3.98;;;;;;;-1.38;77.30;100326.72;1985032;88;21045;-77
2022/01/22 00:28:29;;;;;;;11.18;3.25;;;;;;;-1.37;77.31;100318.45;1984589;88;21167;-75
2022/01/22 00:31:30;;;;;;;10.25;3.40;;;;;;;-1.36;78.46;100330.53;1980348;88;21109;-74
2022/01/22 00:34:32;;;;;;;13.95;3.80;;;;;;;-1.38;77.66;100331.94;1976201;88;21117;-74
2022/01/22 00:37:38;;;;;;;10.68;4.60;;;;;;;-1.38;77.66;100329.33;1977782;88;21600;-75
2022/01/22 00:40:39;;;;;;;11.55;4.20;;;;;;;-1.37;78.09;100334.90;1986837;88;21080;-75
2022/01/22 00:43:41;;;;;;;10.20;3.70;;;;;;;-1.36;78.34;100331.83;1978933;88;21083;-78
2022/01/22 00:46:43;;;;;;;11.03;4.40;;;;;;;-1.34;78.42;100345.61;1953989;88;22793;-75
2022/01/22 00:49:45;;;;;;;11.78;4.25;;;;;;;-1.31;78.66;100339.39;1975985;88;21174;-75
2022/01/22 00:52:51;;;;;;;17.42;5.67;;;;;;;-1.33;79.07;100336.86;1973898;89;21612;-75
2022/01/22 00:55:53;;;;;;;10.60;4.58;;;;;;;-1.29;79.01;100347.97;1974635;89;21039;-75
2022/01/22 00:58:54;;;;;;;11.70;5.35;;;;;;;-1.29;79.02;100340.99;1926973;90;21157;-74
2022/01/22 01:01:55;;;;;;;9.40;4.17;;;;;;;-1.26;79.37;100342.59;1950703;90;21481;-74
2022/01/22 01:04:56;;;;;;;13.48;3.83;;;;;;;-1.24;79.32;100349.39;1951103;90;21103;-75
2022/01/22 01:07:58;;;;;;;9.93;3.83;;;;;;;-1.19;79.79;100343.91;1961745;90;21059;-75
2022/01/22 01:11:00;;;;;;;13.05;4.90;;;;;;;-1.14;80.17;100341.89;1958874;90;21046;-75
2022/01/22 01:14:04;;;;;;;18.57;5.70;;;;;;;-1.09;79.81;100342.47;1967294;90;21082;-75
2022/01/22 01:36:34;;;;;;;9.78;4.03;;;;;;;-0.87;81.74;100345.13;1968757;90;21085;-76
2022/01/22 01:39:38;;;;;;;9.25;4.05;;;;;;;-0.83;81.33;100336.23;1964322;90;21102;-76
2022/01/22 01:42:49;;;;;;;6.60;3.70;;;;;;;-0.78;81.49;100334.20;2019405;87;21078;-75
2022/01/22 01:45:42;;;;;;;12.98;4.87;;;;;;;-0.71;81.47;100326.39;2015777;87;21128;-75
2022/01/22 01:48:44;;;;;;;6.62;3.37;;;;;;;-0.68;81.94;100331.42;1950262;90;21075;-75
2022/01/22 01:51:46;;;;;;;9.50;4.10;;;;;;;-0.65;81.49;100333.84;2015407;86;21057;-75
2022/01/22 01:55:02;;;;;;;11.93;3.60;;;;;;;-0.61;81.80;100334.05;2028000;87;20979;-75
2022/01/22 01:57:51;;;;;;;8.20;4.25;;;;;;;-0.61;81.77;100328.84;2024714;87;21054;-76
2022/01/22 02:00:55;;;;;;;6.47;3.67;;;;;;;-0.60;81.54;100318.78;2023597;87;21121;-74
2022/01/22 02:03:57;;;;;;;16.05;5.40;;;;;;;-0.58;81.86;100330.43;2007387;87;21067;-75
2022/01/22 02:07:00;;;;;;;11.65;4.80;;;;;;;-0.58;82.00;100333.87;2025378;87;21152;-75
2022/01/22 02:10:08;;;;;;;8.35;3.80;;;;;;;-0.57;81.89;100323.80;2025550;87;21102;-75
2022/01/22 02:23:36;;;;;;;7.80;3.58;;;;;;;-0.52;83.20;100323.08;2023816;87;21071;-75
2022/01/22 02:26:35;;;;;;;7.47;3.92;;;;;;;-0.55;82.65;100328.47;2026940;87;21504;-75
2022/01/22 02:29:36;;;;;;;7.33;3.75;;;;;;;-0.56;83.12;100343.75;2027198;87;21589;-75
2022/01/22 02:36:11;;;;;;;4.92;3.33;;;;;;;-0.57;82.92;100334.23;2038766;85;21698;-74
2022/01/22 02:42:03;;;;;;;10.05;3.65;;;;;;;-0.53;82.81;100347.95;2024088;87;21016;-78
2022/01/22 02:45:10;;;;;;;6.95;4.42;;;;;;;-0.55;82.73;100348.02;2029583;87;21550;-75
2022/01/22 02:48:11;;;;;;;7.35;4.35;;;;;;;-0.56;82.78;100350.27;2011306;87;21566;-74
2022/01/22 02:51:12;;;;;;;8.00;3.98;;;;;;;-0.54;82.69;100356.67;2024221;86;21652;-75
2022/01/22 02:54:14;;;;;;;6.95;3.50;;;;;;;-0.53;82.61;100359.20;2022103;86;21144;-75
2022/01/22 02:57:15;;;;;;;7.55;3.95;;;;;;;-0.52;82.70;100356.97;2024315;86;21036;-75
2022/01/22 03:00:22;;;;;;;8.48;3.87;;;;;;;-0.51;82.62;100354.75;2019782;86;21088;-76
2022/01/22 03:03:22;;;;;;;12.63;4.58;;;;;;;-0.51;83.23;100363.01;2018069;86;21134;-76
2022/01/22 03:06:23;;;;;;;7.62;4.70;;;;;;;-0.54;83.21;100358.81;2020658;86;21014;-75
2022/01/22 03:09:30;;;;;;;8.13;4.20;;;;;;;-0.54;82.96;100357.98;2025938;86;21105;-75
2022/01/22 03:15:56;;;;;;;7.33;3.70;;;;;;;-0.55;83.28;100376.70;2024199;86;21523;-76
2022/01/22 03:18:59;;;;;;;4.85;3.70;;;;;;;-0.54;83.80;100383.58;2018138;86;21024;-75
2022/01/22 03:22:02;;;;;;;7.17;3.98;;;;;;;-0.55;83.52;100371.48;2019561;86;21065;-75
2022/01/22 03:28:21;;;;;;;6.20;4.55;;;;;;;-0.54;82.87;100383.58;2022896;86;21114;-76
2022/01/22 03:31:21;;;;;;;8.35;4.97;;;;;;;-0.58;82.82;100395.12;2035919;85;21004;-75
2022/01/22 03:34:22;;;;;;;8.78;4.75;;;;;;;-0.58;83.14;100396.90;2001366;86;21040;-75
2022/01/22 03:37:27;;;;;;;4.42;3.90;;;;;;;-0.60;82.97;100404.79;2022717;86;21115;-75
2022/01/22 03:40:29;;;;;;;6.03;3.98;;;;;;;-0.59;83.01;100409.09;1999430;86;21116;-75
2022/01/22 03:43:30;;;;;;;6.40;3.90;;;;;;;-0.58;82.93;100409.93;2021120;86;21072;-76
2022/01/22 03:46:33;;;;;;;4.62;3.90;;;;;;;-0.58;83.47;100406.85;1998020;86;21608;-74
2022/01/22 03:49:35;;;;;;;8.78;4.58;;;;;;;-0.57;83.03;100411.13;2022375;86;21107;-75
2022/01/22 03:52:38;;;;;;;8.30;5.08;;;;;;;-0.57;83.12;100415.51;1992390;88;21150;-75
2022/01/22 03:59:02;;;;;;;7.67;3.83;;;;;;;-0.57;82.99;100418.95;2022055;85;21121;-75
2022/01/22 04:05:43;;;;;;;8.35;4.80;;;;;;;-0.63;82.39;100432.34;2021134;86;21054;-76
2022/01/22 04:08:39;;;;;;;7.42;4.62;;;;;;;-0.66;82.20;100441.64;2021851;85;21050;-75
2022/01/22 04:11:44;;;;;;;9.55;5.08;;;;;;;-0.67;82.17;100439.13;2025482;85;21065;-75
2022/01/22 04:14:54;;;;;;;4.40;3.55;;;;;;;-0.72;81.92;100453.72;2025023;86;21129;-75
2022/01/22 04:27:53;;;;;;;6.47;4.00;;;;;;;-1.02;81.11;100453.18;2022877;86;21072;-74
2022/01/22 04:30:53;;;;;;;4.87;3.98;;;;;;;-1.14;81.05;100467.72;2022502;86;21090;-75
2022/01/22 04:33:54;;;;;;;4.42;3.87;;;;;;;-1.20;81.12;100468.53;1988562;88;21505;-75
2022/01/22 04:36:56;;;;;;;5.10;4.20;;;;;;;-1.24;81.05;100477.41;1993260;88;21023;-75
2022/01/22 04:40:05;;;;;;;5.30;3.87;;;;;;;-1.25;81.07;100490.06;2027495;87;21064;-74
2022/01/22 04:43:06;;;;;;;4.25;3.40;;;;;;;-1.27;81.17;100495.80;2023538;87;21143;-74
2022/01/22 04:52:34;;;;;;;4.60;3.85;;;;;;;-1.34;81.09;100502.28;2032877;85;21105;-77
2022/01/22 04:52:38;;;;;;;5.33;4.10;;;;;;;-1.34;81.08;100508.79;2034183;85;21047;-77
2022/01/22 04:55:34;;;;;;;7.60;4.85;;;;;;;-1.36;80.97;100513.59;2026304;83;21047;-75
2022/01/22 04:58:47;;;;;;;5.67;4.00;;;;;;;-1.42;80.84;100510.02;2025974;85;21009;-78
2022/01/22 05:01:41;;;;;;;9.08;4.65;;;;;;;-1.41;80.93;100520.83;2024943;85;21067;-78
2022/01/22 05:04:53;;;;;;;8.58;4.87;;;;;;;-1.41;80.76;100530.38;2007204;86;21047;-75
2022/01/22 05:08:06;;;;;;;7.92;5.78;;;;;;;-1.44;80.55;100532.67;2003528;86;21517;-76
2022/01/22 05:11:20;;;;;;;6.37;4.92;;;;;;;-1.51;80.34;100539.14;2039578;85;21549;-75
2022/01/22 05:14:28;;;;;;;8.55;5.12;;;;;;;-1.56;80.26;100545.50;2027244;86;22436;-75
2022/01/22 05:17:38;;;;;;;8.63;4.55;;;;;;;-1.63;80.08;100546.28;2021136;86;21095;-76
2022/01/22 05:20:49;;;;;;;9.15;5.10;;;;;;;-1.70;79.95;100554.02;2027828;86;21087;-76
2022/01/22 05:23:52;;;;;;;8.50;5.35;;;;;;;-1.82;79.78;100545.91;2025988;86;21067;-75
2022/01/22 05:30:06;;;;;;;12.10;6.87;;;;;;;-2.06;79.63;100561.42;2022466;86;21085;-75
2022/01/22 05:37:07;;;;;;;10.53;6.85;;;;;;;-2.27;79.71;100573.27;2022589;86;21031;-75
2022/01/22 05:40:11;;;;;;;14.68;6.85;;;;;;;-2.37;79.73;100579.80;2025885;86;21586;-75
2022/01/22 05:43:13;;;;;;;11.60;7.30;;;;;;;-2.44;79.71;100586.69;2021596;86;21070;-78
2022/01/22 05:46:16;;;;;;;11.80;7.12;;;;;;;-2.51;79.65;100595.20;2023815;86;21556;-76
2022/01/22 05:49:20;;;;;;;9.48;6.50;;;;;;;-2.61;79.58;100592.67;2029323;86;21038;-75
2022/01/22 05:52:31;;;;;;;9.08;6.40;;;;;;;-2.68;79.63;100605.55;2025926;86;21092;-77
2022/01/22 05:55:43;;;;;;;12.40;6.20;;;;;;;-2.79;79.64;100603.00;2027009;85;21078;-74
2022/01/22 06:01:52;;;;;;;11.55;7.90;;;;;;;-2.90;80.06;100613.47;2028978;86;21115;-74
2022/01/22 06:04:59;;;;;;;7.80;6.08;;;;;;;-2.92;80.24;100631.73;2035106;85;21143;-74
2022/01/22 06:07:58;;;;;;;13.72;8.88;;;;;;;-2.96;80.49;100636.23;2028535;86;21514;-75
2022/01/22 06:11:08;;;;;;;11.10;7.78;;;;;;;-2.94;80.64;100646.53;2024987;86;21165;-74
2022/01/22 06:14:07;;;;;;;12.53;7.53;;;;;;;-2.96;80.66;100652.23;2002384;86;21008;-75
2022/01/22 06:17:13;;;;;;;11.25;7.37;;;;;;;-2.96;80.68;100667.81;2001093;86;21044;-76
2022/01/22 06:20:22;;;;;;;14.87;8.18;;;;;;;-3.02;80.55;100677.17;2023238;86;21086;-75
2022/01/22 06:23:23;;;;;;;12.88;7.90;;;;;;;-3.05;80.60;100679.91;2019089;85;21094;-75
2022/01/22 06:26:29;;;;;;;9.35;7.17;;;;;;;-3.09;80.45;100679.66;2024508;86;21032;-75
2022/01/22 06:29:36;;;;;;;11.95;7.95;;;;;;;-3.15;80.86;100685.97;2023070;86;21036;-76
2022/01/22 06:32:44;;;;;;;11.00;7.65;;;;;;;-3.18;80.63;100689.53;2019424;86;21640;-75
2022/01/22 06:35:46;;;;;;;12.05;8.10;;;;;;;-3.22;80.73;100707.42;2018232;86;21651;-74
2022/01/22 06:38:50;;;;;;;17.92;10.05;;;;;;;-3.25;80.73;100711.91;1994505;86;21096;-74
2022/01/22 06:41:58;;;;;;;14.18;8.48;;;;;;;-3.28;80.77;100712.88;2014136;86;21142;-76
2022/01/22 06:45:19;;;;;;;18.25;8.70;;;;;;;-3.29;80.65;100719.45;1913806;91;21099;-76
2022/01/22 06:48:25;;;;;;;11.73;8.65;;;;;;;-3.30;80.89;100723.77;1922737;91;21063;-75
2022/01/22 06:51:33;;;;;;;11.45;8.73;;;;;;;-3.29;80.88;100729.83;1993670;85;21579;-75
2022/01/22 06:54:34;;;;;;;15.65;9.38;;;;;;;-3.27;81.13;100736.62;2017825;85;21128;-75
2022/01/22 06:57:42;;;;;;;13.65;8.40;;;;;;;-3.26;81.03;100743.52;2013406;86;21017;-79
2022/01/22 07:00:45;;;;;;;13.50;8.15;;;;;;;-3.26;81.00;100748.70;2016917;85;21017;-79
2022/01/22 07:03:58;;;;;;;15.60;9.43;;;;;;;-3.22;81.01;100749.41;2001233;85;21090;-84
2022/01/22 07:07:05;;;;;;;13.08;9.03;;;;;;;-3.20;81.11;100759.30;2012255;86;21084;-83
2022/01/22 07:10:08;;;;;;;16.70;8.83;;;;;;;-3.15;81.33;100753.46;2019097;86;21081;-81
2022/01/22 07:13:11;;;;;;;14.83;8.78;;;;;;;-3.03;81.49;100755.98;2043607;85;21066;-80
2022/01/22 07:16:13;;;;;;;16.45;9.00;;;;;;;-2.86;81.42;100761.31;2018707;86;21131;-81
2022/01/22 07:19:18;;;;;;;16.45;9.83;;;;;;;-2.78;81.35;100769.63;2013224;86;22061;-81
2022/01/22 07:23:14;;;;;;;15.60;9.80;;;;;;;-2.75;81.30;100765.59;2012709;86;21482;-79
2022/01/22 07:25:24;;;;;;;16.55;10.05;;;;;;;-2.74;81.08;100769.86;2015416;85;21078;-81
2022/01/22 07:28:25;;;;;;;18.57;10.58;;;;;;;-2.68;81.18;100770.52;2014867;86;21058;-81
2022/01/22 07:31:30;;;;;;;28.15;12.80;;;;;;;-2.58;81.08;100779.61;2014179;86;21030;-81
2022/01/22 07:34:33;;;;;;;24.92;12.90;;;;;;;-2.52;80.95;100782.77;2017088;86;21123;-76
2022/01/22 07:37:36;;;;;;;17.07;9.58;;;;;;;-2.42;80.89;100792.76;2020445;85;21131;-84
2022/01/22 07:40:40;;;;;;;14.03;8.65;;;;;;;-2.40;80.74;100788.34;2013318;85;21086;-78
2022/01/22 07:43:43;;;;;;;14.38;8.13;;;;;;;-2.39;80.62;100805.19;2017946;85;21543;-81
2022/01/22 07:47:02;;;;;;;14.15;8.40;;;;;;;-2.40;80.58;100806.08;2011033;86;21023;-78
2022/01/22 07:50:07;;;;;;;13.75;8.55;;;;;;;-2.38;80.51;100806.02;2013469;86;21063;-81
2022/01/22 07:53:08;;;;;;;17.48;9.38;;;;;;;-2.33;80.47;100810.11;2013066;86;21064;-82
2022/01/22 07:56:12;;;;;;;16.40;9.95;;;;;;;-2.28;80.52;100822.45;2019349;86;21064;-81
2022/01/22 07:59:14;;;;;;;16.12;9.20;;;;;;;-2.15;80.43;100826.64;2016971;85;21089;-81
2022/01/22 08:02:17;;;;;;;13.20;8.53;;;;;;;-2.11;80.14;100834.70;2020596;86;21081;-81
2022/01/22 08:05:21;;;;;;;14.83;8.50;;;;;;;-2.13;80.13;100835.22;2019246;85;21098;-80
2022/01/22 08:08:41;;;;;;;14.50;8.65;;;;;;;-2.15;79.94;100831.84;2015297;86;21738;-80
2022/01/22 08:12:04;;;;;;;19.82;10.43;;;;;;;-2.13;79.98;100846.92;1971861;89;21148;-80
2022/01/22 08:15:08;;;;;;;18.05;9.98;;;;;;;-1.94;80.12;100846.95;1980311;87;21065;-80
2022/01/22 08:18:09;;;;;;;14.25;8.63;;;;;;;-1.56;80.08;100850.01;2026418;86;21026;-80
2022/01/22 08:21:10;;;;;;;12.88;8.18;;;;;;;-1.28;79.92;100843.88;1983220;89;21091;-80
2022/01/22 08:24:31;;;;;;;15.93;9.18;;;;;;;-1.21;78.74;100845.72;1981650;89;21166;-80
2022/01/22 08:28:53;;;;;;;13.20;7.83;;;;;;;-1.29;78.80;100845.27;1981771;87;21032;-81
2022/01/22 08:30:46;;;;;;;14.28;7.90;;;;;;;-1.30;78.60;100844.41;1982660;87;22207;-81
2022/01/22 08:37:09;;;;;;;11.78;8.10;;;;;;;-1.01;78.34;100863.86;1942212;90;21046;-84
2022/01/22 08:40:15;;;;;;;17.12;9.43;;;;;;;-0.44;78.91;100863.64;2016214;86;21058;-82
2022/01/22 08:43:20;;;;;;;16.07;9.33;;;;;;;0.14;77.99;100875.39;2002704;86;21594;-80
2022/01/22 08:46:23;;;;;;;15.93;9.10;;;;;;;0.52;77.59;100873.34;2013430;86;21078;-78
2022/01/22 08:49:25;;;;;;;14.53;9.23;;;;;;;0.89;75.78;100873.44;2015592;86;21019;-80
2022/01/22 08:52:32;;;;;;;21.23;12.15;;;;;;;1.16;76.34;100873.30;2019166;85;21071;-86
2022/01/22 08:55:38;;;;;;;23.50;11.88;;;;;;;1.34;75.94;100882.67;2020296;86;21095;-81
2022/01/22 08:58:43;;;;;;;18.55;11.75;;;;;;;1.66;75.80;100891.71;2017447;86;21066;-80
2022/01/22 09:01:52;;;;;;;16.45;11.53;;;;;;;1.79;74.97;100896.12;1958668;85;21144;-85
2022/01/22 09:04:54;;;;;;;14.23;9.80;;;;;;;2.11;74.21;100891.19;1982634;86;21053;-79
2022/01/22 09:08:14;;;;;;;12.93;8.60;;;;;;;2.13;73.08;100893.26;2020130;85;21102;-81
2022/01/22 09:11:26;;;;;;;15.72;8.68;;;;;;;2.21;73.50;100892.33;1981384;86;21857;-80
2022/01/22 09:14:39;;;;;;;15.13;8.75;;;;;;;2.30;72.98;100902.23;2016678;86;21110;-81
2022/01/22 09:17:48;;;;;;;14.18;8.78;;;;;;;2.47;72.77;100907.26;2022674;86;21042;-77
2022/01/22 09:21:01;;;;;;;15.13;9.40;;;;;;;2.47;71.45;100906.42;2017911;86;21542;-81
2022/01/22 09:23:52;;;;;;;14.15;8.03;;;;;;;2.43;70.68;100905.78;1962873;88;21511;-79
2022/01/22 09:27:01;;;;;;;15.70;8.10;;;;;;;2.60;71.86;100911.28;2020974;85;21104;-80
2022/01/22 09:30:05;;;;;;;14.68;7.87;;;;;;;2.55;70.53;100921.20;2022416;86;21053;-82
2022/01/22 09:33:08;;;;;;;18.25;10.15;;;;;;;2.54;70.06;100916.91;1997511;86;21030;-78
2022/01/22 09:36:12;;;;;;;16.80;9.13;;;;;;;2.42;69.89;100925.50;2028080;85;21692;-78
2022/01/22 09:39:37;;;;;;;14.30;7.85;;;;;;;2.51;69.27;100940.68;1959826;89;21085;-78
2022/01/22 09:42:57;;;;;;;17.52;8.48;;;;;;;2.60;68.62;100940.58;1957922;89;21605;-78
2022/01/22 09:46:24;;;;;;;14.05;7.28;;;;;;;2.67;69.05;100940.08;1958292;89;21109;-80
2022/01/22 09:49:29;;;;;;;11.30;6.00;;;;;;;2.81;67.50;100949.69;1997297;86;21545;-78
2022/01/22 09:52:32;;;;;;;10.48;5.50;;;;;;;2.60;66.64;100951.05;2011446;84;21086;-92
2022/01/22 09:55:42;;;;;;;11.40;6.10;;;;;;;2.05;65.90;100955.70;2018352;86;21508;-80
2022/01/22 09:59:00;;;;;;;10.70;5.83;;;;;;;1.51;65.24;100972.77;2017107;85;21028;-82
2022/01/22 10:02:16;;;;;;;9.48;5.12;;;;;;;1.25;66.58;100979.48;2015137;86;21407;-86
2022/01/22 10:05:42;;;;;;;5.78;3.45;;;;;;;1.03;67.20;100990.28;2015589;86;21138;-83
2022/01/22 10:09:14;;;;;;;9.60;4.12;;;;;;;0.73;65.97;100982.33;1979346;86;21069;-83
2022/01/22 10:12:47;;;;;;;5.03;2.95;;;;;;;0.61;67.30;100979.92;2016534;86;21089;-83
2022/01/22 10:16:37;;;;;;;5.30;3.10;;;;;;;0.60;66.42;100986.08;1907639;92;21110;-83
2022/01/22 10:19:41;;;;;;;8.25;2.72;;;;;;;0.48;66.23;100995.88;2019318;86;21100;-77
2022/01/22 10:22:52;;;;;;;5.75;3.17;;;;;;;0.26;65.15;101001.84;2016160;86;21094;-79
2022/01/22 10:26:04;;;;;;;6.72;3.05;;;;;;;0.06;63.32;101001.09;2015619;86;21090;-83
2022/01/22 10:29:11;;;;;;;5.80;2.95;;;;;;;0.02;65.41;101011.75;2018253;86;21079;-83
2022/01/22 10:33:01;;;;;;;8.78;2.75;;;;;;;-0.03;63.91;101017.19;2017657;86;21142;-83
2022/01/22 10:35:56;;;;;;;6.95;2.30;;;;;;;-0.12;64.17;101004.14;2015902;86;21056;-81
2022/01/22 10:39:04;;;;;;;6.50;2.67;;;;;;;-0.18;65.03;101016.19;2015460;86;21076;-79
2022/01/22 10:42:24;;;;;;;8.50;2.87;;;;;;;-0.22;64.07;101004.23;2004241;86;20973;-76
2022/01/22 10:45:43;;;;;;;;;;;;;;;;;;;;;
2022/01/22 10:48:40;;;;;;;6.12;3.05;;;;;;;-0.28;65.03;101010.60;1992180;85;21721;-79
2022/01/22 10:51:59;;;;;;;6.40;2.87;;;;;;;-0.31;64.06;101012.49;2016306;86;21018;-82
2022/01/22 10:55:07;;;;;;;9.30;3.70;;;;;;;-0.29;65.48;101021.09;2017177;86;21079;-82
2022/01/22 10:58:11;;;;;;;4.03;2.23;;;;;;;-0.28;64.27;101035.84;2017132;86;21030;-82
2022/01/22 11:01:13;;;;;;;7.47;2.55;;;;;;;-0.31;63.11;101035.53;2015289;86;21911;-81
2022/01/22 11:04:40;;;;;;;9.68;3.05;;;;;;;-0.33;63.85;101042.58;2012173;86;21117;-81
2022/01/22 11:11:09;;;;;;;5.45;2.77;;;;;;;-0.38;63.37;101049.77;1998981;86;21031;-88
2022/01/22 11:14:20;;;;;;;4.95;2.67;;;;;;;-0.48;63.57;101050.69;2013027;86;21049;-77
2022/01/22 11:17:29;;;;;;;;;;;;;;;;;;;;;
2022/01/22 11:20:34;;;;;;;7.42;3.35;;;;;;;-0.52;64.20;101051.73;2011553;86;21554;-83
2022/01/22 11:23:46;;;;;;;8.93;3.00;;;;;;;-0.48;64.75;101051.98;2001201;86;21594;-82
2022/01/22 11:27:05;;;;;;;6.58;3.52;;;;;;;-0.44;63.12;101051.84;2016727;86;21106;-82
2022/01/22 11:30:33;;;;;;;6.67;3.00;;;;;;;-0.38;64.97;101063.27;2009318;86;21673;-78
2022/01/22 11:33:34;;;;;;;7.10;3.20;;;;;;;-0.30;63.34;101063.75;1984355;86;21560;-76
2022/01/22 11:36:53;;;;;;;8.48;3.90;;;;;;;-0.07;63.78;101067.37;1973545;86;21055;-76
2022/01/22 11:40:19;;;;;;;9.70;4.03;;;;;;;0.05;63.70;101063.31;2004298;86;21601;-79
2022/01/22 11:43:33;;;;;;;9.68;4.67;;;;;;;-0.02;63.11;101082.82;2015429;85;21019;-75
2022/01/22 11:46:30;;;;;;;8.45;4.03;;;;;;;0.01;63.51;101092.27;2016629;85;21094;-80
2022/01/22 11:49:36;;;;;;;8.48;4.72;;;;;;;-0.08;63.35;101106.61;2017106;86;21109;-78
2022/01/22 11:52:44;;;;;;;9.20;3.95;;;;;;;-0.19;63.66;101100.60;2018881;86;21587;-77
2022/01/22 11:59:38;;;;;;;7.87;3.27;;;;;;;-0.22;63.28;101105.13;2028451;86;21125;-80
2022/01/22 12:03:10;;;;;;;6.70;3.47;;;;;;;-0.28;63.36;101114.09;2030314;86;21586;-77
2022/01/22 12:06:16;;;;;;;16.00;6.28;;;;;;;-0.31;62.48;101118.12;2025229;86;21058;-81
2022/01/22 12:09:26;;;;;;;35.48;14.30;;;;;;;-0.14;62.32;101123.41;2029881;85;22393;-79
2022/01/22 12:16:00;;;;;;;6.30;3.10;;;;;;;-0.26;63.12;101123.97;2028894;85;21068;-82
2022/01/22 12:19:22;;;;;;;6.62;2.67;;;;;;;-0.24;63.57;101136.48;2027882;86;21035;-78
2022/01/22 12:22:49;;;;;;;;;;;;;;;;;;;;;
2022/01/22 12:26:13;;;;;;;;;;;;;;;;;;;;;
2022/01/22 12:28:53;;;;;;;4.80;2.40;;;;;;;-0.45;62.61;101140.96;2008530;86;21552;-77
2022/01/22 12:32:25;;;;;;;7.87;3.00;;;;;;;-0.53;62.77;101149.13;2026929;86;21059;-78
2022/01/22 12:35:53;;;;;;;4.47;2.45;;;;;;;-0.54;63.00;101157.00;2026011;86;21102;-82
2022/01/22 12:39:09;;;;;;;6.78;4.00;;;;;;;-0.54;63.23;101155.23;1990490;86;21137;-81
2022/01/22 12:42:30;;;;;;;7.65;3.25;;;;;;;-0.49;63.79;101153.27;2022031;86;21065;-79
2022/01/22 12:48:45;;;;;;;7.55;3.55;;;;;;;-0.48;63.24;101151.07;2007237;86;21458;-83
2022/01/22 12:51:59;;;;;;;6.85;3.40;;;;;;;-0.52;63.69;101150.81;2028820;86;21069;-83
2022/01/22 12:55:20;;;;;;;12.40;4.60;;;;;;;-0.58;63.66;101158.92;2028687;84;21051;-81
2022/01/22 12:58:36;;;;;;;13.80;5.15;;;;;;;-0.56;63.78;101163.61;2027439;86;21054;-81
2022/01/22 13:05:03;;;;;;;8.40;3.73;;;;;;;-0.53;64.40;101175.20;2003351;86;21146;-81
2022/01/22 13:08:23;;;;;;;9.87;4.40;;;;;;;-0.56;64.32;101172.73;2012355;86;21158;-82
2022/01/22 13:11:53;;;;;;;10.13;3.95;;;;;;;-0.58;64.71;101178.94;2027594;86;21050;-82
2022/01/22 13:15:01;;;;;;;7.15;3.80;;;;;;;-0.64;64.74;101170.93;2028731;85;21062;-82
2022/01/22 13:18:12;;;;;;;7.55;3.92;;;;;;;-0.69;64.85;101180.72;2028635;86;21011;-82
2022/01/22 13:24:38;;;;;;;11.43;4.30;;;;;;;-0.78;64.83;101191.55;1989448;86;21053;-81
2022/01/22 13:31:33;;;;;;;;;;;;;;;;;;;;;
2022/01/22 13:48:40;;;;;;;14.93;7.37;;;;;;;-0.66;64.95;101207.11;1908274;91;21071;-80
2022/01/22 13:51:44;;;;;;;8.73;3.90;;;;;;;-0.72;64.97;101209.06;1983579;86;21035;-78
2022/01/22 13:55:01;;;;;;;9.08;3.72;;;;;;;-0.80;64.68;101216.83;2010341;86;21046;-79
2022/01/22 14:01:42;;;;;;;10.23;3.30;;;;;;;-0.97;64.55;101212.36;2008100;86;21002;-78
2022/01/22 14:05:01;;;;;;;7.53;3.55;;;;;;;-1.08;64.51;101218.02;2029975;86;21099;-78
2022/01/22 14:08:28;;;;;;;7.92;3.22;;;;;;;-1.17;64.65;101209.30;2019288;85;21079;-79
2022/01/22 14:11:27;;;;;;;11.28;4.40;;;;;;;-1.27;64.58;101218.40;2008604;86;21035;-78
2022/01/22 14:18:27;;;;;;;12.53;5.55;;;;;;;-1.35;64.76;101234.37;2015894;86;21062;-78
2022/01/22 14:21:26;;;;;;;8.83;4.35;;;;;;;-1.38;64.97;101238.37;1987955;86;21581;-78
2022/01/22 14:24:43;;;;;;;22.42;7.78;;;;;;;-1.41;65.08;101243.70;2030854;86;21066;-84
2022/01/22 14:31:57;;;;;;;8.13;4.05;;;;;;;-1.45;65.26;101240.39;1930967;90;21080;-79
2022/01/22 14:34:59;;;;;;;51.63;14.23;;;;;;;-1.46;65.10;101251.72;1938185;90;21923;-83
2022/01/22 14:45:39;;;;;;;;;;;;;;;;;;;;;
2022/01/22 14:48:39;;;;;;;;;;;;;;;-1.69;65.25;101260.88;2033575;84;21050;-80
2022/01/22 14:51:46;;;;;;;28.67;9.75;;;;;;;-1.76;65.36;101248.58;1996511;88;20140;-80
2022/01/22 14:55:14;;;;;;;23.32;9.65;;;;;;;-1.85;65.41;101257.59;2027726;84;21122;-84
2022/01/22 14:58:16;;;;;;;20.72;7.37;;;;;;;-1.92;65.45;101260.48;2003478;87;21151;-81
2022/01/22 15:01:19;;;;;;;12.78;4.78;;;;;;;-2.01;65.58;101259.55;2008850;86;21038;-80
2022/01/22 15:04:21;;;;;;;12.23;4.35;;;;;;;-2.09;65.64;101261.97;2013719;87;21490;-79
2022/01/22 15:07:39;;;;;;;13.53;5.20;;;;;;;-2.13;65.76;101267.36;2007075;87;21607;-80
2022/01/22 15:10:52;;;;;;;13.85;5.53;;;;;;;-2.20;65.83;101271.92;1998991;87;21138;-86
2022/01/22 15:14:03;;;;;;;10.03;5.58;;;;;;;-2.27;65.93;101286.92;2016761;86;21054;-77
2022/01/22 15:20:14;;;;;;;21.35;8.93;;;;;;;-2.38;66.17;101296.86;2034961;85;21046;-80
2022/01/22 15:23:18;;;;;;;15.98;8.18;;;;;;;-2.44;66.22;101295.78;2026402;86;22242;-79
2022/01/22 15:26:22;;;;;;;12.35;5.67;;;;;;;-2.49;66.25;101293.80;2033753;86;21110;-86
2022/01/22 15:29:29;;;;;;;13.95;5.58;;;;;;;-2.56;66.33;101307.89;2032875;85;21102;-84
2022/01/22 15:32:48;;;;;;;11.33;5.25;;;;;;;-2.62;66.37;101300.31;2009872;86;21059;-82
2022/01/22 15:35:48;;;;;;;38.95;13.13;;;;;;;-2.71;66.42;101306.23;2029416;86;21023;-79
2022/01/22 15:38:58;;;;;;;59.20;20.48;;;;;;;-2.78;66.59;101309.95;2027926;86;21135;-79
2022/01/22 15:42:16;;;;;;;37.95;12.53;;;;;;;-2.82;66.66;101306.20;2028753;85;21062;-82
2022/01/22 15:45:37;;;;;;;36.28;9.90;;;;;;;-2.86;66.70;101304.17;2035517;86;21620;-79
2022/01/22 15:48:49;;;;;;;;;;;;;;;;;;;;;
2022/01/22 15:52:02;;;;;;;23.15;6.67;;;;;;;-2.89;66.77;101312.52;2028194;86;21072;-79
2022/01/22 15:55:11;;;;;;;18.12;6.97;;;;;;;-2.95;66.69;101317.02;2019673;85;21130;-79
2022/01/22 15:58:19;;;;;;;19.92;7.25;;;;;;;-2.99;66.79;101317.16;2022207;85;21162;-77
2022/01/22 16:01:28;;;;;;;31.73;9.58;;;;;;;-3.01;66.80;101334.56;2029890;86;21003;-77
2022/01/22 16:04:36;;;;;;;26.85;9.00;;;;;;;-3.04;66.91;101341.13;2022726;86;21014;-77
2022/01/22 16:07:48;;;;;;;24.32;8.35;;;;;;;-3.10;66.93;101335.69;2024497;86;21050;-77
2022/01/22 16:10:54;;;;;;;22.67;9.43;;;;;;;-3.12;67.03;101331.47;2020018;86;21130;-79
2022/01/22 16:13:59;;;;;;;24.92;8.38;;;;;;;-3.16;67.02;101328.95;2025026;86;21030;-77
2022/01/22 16:17:05;;;;;;;19.67;8.13;;;;;;;-3.20;67.10;101335.60;2015215;86;21058;-77
2022/01/22 16:20:10;;;;;;;17.20;7.97;;;;;;;-3.23;67.13;101336.55;2022298;86;21167;-78
2022/01/22 16:23:16;;;;;;;16.25;6.97;;;;;;;-3.23;67.20;101342.19;2021492;85;21080;-78
2022/01/22 16:26:24;;;;;;;15.00;6.55;;;;;;;-3.24;67.22;101343.95;2022235;85;20990;-81
2022/01/22 16:29:30;;;;;;;19.70;7.08;;;;;;;-3.23;67.19;101345.63;2022645;86;21053;-77
2022/01/22 16:32:48;;;;;;;19.02;7.50;;;;;;;-3.25;67.24;101347.88;2022845;86;21015;-77
2022/01/22 16:35:46;;;;;;;20.82;7.53;;;;;;;-3.26;67.17;101350.92;2016301;86;21172;-77
2022/01/22 16:38:51;;;;;;;21.42;8.58;;;;;;;-3.32;67.09;101339.87;2018898;86;21599;-78
2022/01/22 16:42:03;;;;;;;19.77;8.55;;;;;;;-3.33;67.23;101354.59;2025513;86;21542;-78
2022/01/22 16:45:33;;;;;;;33.48;9.30;;;;;;;-3.39;67.25;101358.23;2021341;86;21078;-80
2022/01/22 16:55:06;;;;;;;36.60;17.87;;;;;;;-3.47;67.51;101364.55;2022124;86;21055;-84
2022/01/22 16:58:10;;;;;;;28.45;12.98;;;;;;;-3.52;67.49;101365.14;2024248;87;21540;-85
2022/01/22 17:02:02;;;;;;;23.12;11.15;;;;;;;-3.57;67.60;101363.16;2027379;87;21482;-79
2022/01/22 17:04:36;;;;;;;27.10;9.70;;;;;;;-3.57;67.73;101368.34;1998234;87;21080;-77